createdAt,value
2022-10-30T00:01:03.481Z,76.12
2022-10-30T00:03:30.092Z,76.10
2022-10-30T00:05:56.784Z,76.36
2022-10-30T00:08:25.594Z,76.71
2022-10-30T00:10:52.931Z,76.43
2022-10-30T00:13:20.496Z,76.98
2022-10-30T00:15:49.202Z,77.02
2022-10-30T00:18:16.346Z,77.06
2022-10-30T00:20:43.032Z,77.08
2022-10-30T00:23:09.789Z,76.82
2022-10-30T00:25:36.770Z,76.69
2022-10-30T00:28:06.177Z,77.03
2022-10-30T00:30:34.181Z,76.57
2022-10-30T00:33:01.462Z,76.95
2022-10-30T00:35:28.542Z,76.78
2022-10-30T00:37:55.642Z,76.93
2022-10-30T00:40:22.836Z,76.82
2022-10-30T00:42:49.582Z,77.24
2022-10-30T00:45:17.232Z,76.61
2022-10-30T00:47:50.233Z,77.42
2022-10-30T00:53:18.395Z,77.13
2022-10-30T00:55:53.562Z,77.47
2022-10-30T00:58:27.123Z,77.69
2022-10-30T01:00:57.434Z,77.29
2022-10-30T01:03:26.661Z,78.24
2022-10-30T01:05:57.709Z,77.94
2022-10-30T01:08:24.932Z,77.84
2022-10-30T01:10:52.082Z,78.23
2022-10-30T01:13:21.112Z,78.19
2022-10-30T01:29:56.321Z,78.99
2022-10-30T01:40:23.981Z,78.60
2022-10-30T01:58:55.085Z,78.72
2022-10-30T02:01:23.802Z,78.78
2022-10-30T02:03:51.364Z,78.96
2022-10-30T02:06:18.100Z,79.22
2022-10-30T02:08:44.637Z,79.26
2022-10-30T02:11:11.662Z,78.96
2022-10-30T02:13:38.570Z,79.44
2022-10-30T02:16:05.916Z,79.24
2022-10-30T02:18:32.544Z,79.49
2022-10-30T02:20:59.194Z,79.63
2022-10-30T02:23:25.887Z,78.77
2022-10-30T02:25:52.458Z,79.42
2022-10-30T02:28:19.046Z,79.13
2022-10-30T02:30:45.610Z,78.99
2022-10-30T02:33:12.377Z,79.07
2022-10-30T02:35:39.103Z,79.08
2022-10-30T02:38:05.695Z,78.67
2022-10-30T02:40:32.355Z,79.08
2022-10-30T02:42:59.594Z,79.25
2022-10-30T02:45:26.219Z,78.95
2022-10-30T02:47:52.850Z,78.79
2022-10-30T02:50:19.500Z,79.62
2022-10-30T02:52:46.418Z,79.31
2022-10-30T02:55:13.080Z,79.29
2022-10-30T02:57:39.627Z,78.88
2022-10-30T03:00:06.795Z,79.90
2022-10-30T03:02:33.509Z,79.30
2022-10-30T03:05:00.070Z,79.21
2022-10-30T03:07:26.616Z,79.24
2022-10-30T03:09:54.514Z,79.87
2022-10-30T03:12:22.020Z,79.93
2022-10-30T03:14:48.764Z,79.58
2022-10-30T03:17:15.324Z,79.51
2022-10-30T03:19:41.894Z,79.08
2022-10-30T03:22:08.460Z,79.64
2022-10-30T03:24:34.980Z,79.48
2022-10-30T03:27:01.593Z,79.48
2022-10-30T03:29:28.792Z,79.95
2022-10-30T03:31:55.480Z,80.21
2022-10-30T03:34:22.074Z,79.83
2022-10-30T03:36:48.790Z,80.22
2022-10-30T03:39:15.614Z,79.55
2022-10-30T03:41:43.523Z,80.21
2022-10-30T03:44:10.126Z,80.29
2022-10-30T03:46:36.889Z,79.56
2022-10-30T03:49:03.431Z,80.14
2022-10-30T03:51:30.005Z,79.72
2022-10-30T03:53:56.688Z,80.26
2022-10-30T03:56:23.262Z,80.82
2022-10-30T03:58:49.790Z,79.90
2022-10-30T04:01:16.576Z,79.98
2022-10-30T04:03:43.147Z,80.10
2022-10-30T04:06:09.918Z,80.31
2022-10-30T04:08:36.520Z,79.69
2022-10-30T04:11:03.419Z,79.65
2022-10-30T04:13:30.041Z,80.08
2022-10-30T04:15:58.165Z,79.45
2022-10-30T04:18:26.266Z,80.14
2022-10-30T04:20:53.186Z,80.25
2022-10-30T04:23:21.933Z,79.67
2022-10-30T04:25:48.741Z,79.35
2022-10-30T04:28:15.505Z,80.16
2022-10-30T04:30:42.133Z,80.42
2022-10-30T04:33:11.767Z,79.99
2022-10-30T04:35:39.365Z,80.72
2022-10-30T04:38:08.680Z,79.93
2022-10-30T04:40:37.909Z,80.00
2022-10-30T04:43:05.937Z,80.53
2022-10-30T04:45:32.867Z,80.72
2022-10-30T04:48:02.257Z,80.02
2022-10-30T04:50:28.983Z,80.39
2022-10-30T04:53:00.466Z,81.04
2022-10-30T04:55:28.165Z,81.45
2022-10-30T04:57:57.915Z,81.65
2022-10-30T05:00:25.001Z,81.31
2022-10-30T05:02:51.510Z,81.48
2022-10-30T05:05:18.139Z,81.15
2022-10-30T05:07:44.718Z,81.72
2022-10-30T05:10:14.744Z,81.29
2022-10-30T05:12:43.607Z,80.52
2022-10-30T05:15:11.174Z,81.80
2022-10-30T05:17:37.879Z,80.80
2022-10-30T05:20:06.056Z,81.23
2022-10-30T05:22:32.946Z,81.61
2022-10-30T05:24:59.482Z,81.30
2022-10-30T05:27:26.016Z,81.03
2022-10-30T05:29:52.572Z,81.58
2022-10-30T05:32:19.136Z,82.04
2022-10-30T05:34:45.834Z,81.52
2022-10-30T05:37:12.364Z,80.99
2022-10-30T05:39:38.966Z,81.73
2022-10-30T05:42:08.521Z,80.51
2022-10-30T05:44:59.089Z,81.18
2022-10-30T05:47:22.875Z,81.99
2022-10-30T05:49:49.499Z,81.71
2022-10-30T05:52:16.129Z,81.26
2022-10-30T05:54:42.655Z,81.91
2022-10-30T05:57:09.181Z,81.35
2022-10-30T05:59:35.990Z,82.15
2022-10-30T06:02:02.589Z,82.29
2022-10-30T06:04:29.177Z,82.50
2022-10-30T06:06:55.708Z,81.79
2022-10-30T06:09:22.256Z,82.40
2022-10-30T06:11:48.883Z,81.64
2022-10-30T06:14:15.452Z,81.56
2022-10-30T06:16:41.971Z,82.47
2022-10-30T06:19:09.393Z,82.24
2022-10-30T06:21:37.318Z,81.71
2022-10-30T06:24:04.179Z,82.39
2022-10-30T06:26:30.740Z,82.54
2022-10-30T06:28:57.403Z,82.30
2022-10-30T06:31:23.964Z,82.13
2022-10-30T06:33:50.602Z,81.43
2022-10-30T06:36:17.632Z,82.62
2022-10-30T06:38:44.487Z,82.46
2022-10-30T06:41:11.020Z,81.56
2022-10-30T06:43:37.576Z,81.93
2022-10-30T06:46:04.404Z,82.55
2022-10-30T06:48:31.614Z,81.69
2022-10-30T06:51:00.940Z,81.42
2022-10-30T06:53:27.540Z,81.56
2022-10-30T06:55:59.730Z,81.95
2022-10-30T06:58:27.525Z,82.01
2022-10-30T07:00:54.388Z,82.23
2022-10-30T07:03:21.740Z,82.07
2022-10-30T07:05:48.628Z,82.09
2022-10-30T07:08:15.317Z,82.05
2022-10-30T07:10:42.063Z,81.80
2022-10-30T07:13:09.418Z,81.92
2022-10-30T07:15:36.085Z,82.03
2022-10-30T07:18:04.353Z,82.49
2022-10-30T07:20:33.746Z,82.14
2022-10-30T07:23:01.155Z,81.49
2022-10-30T07:25:28.106Z,82.31
2022-10-30T07:27:56.229Z,81.97
2022-10-30T07:32:58.702Z,82.01
2022-10-30T07:35:25.626Z,81.54
2022-10-30T07:37:52.253Z,81.76
2022-10-30T07:40:21.758Z,81.14
2022-10-30T07:42:48.686Z,81.37
2022-10-30T07:45:15.382Z,81.53
2022-10-30T07:47:43.538Z,81.42
2022-10-30T07:50:11.358Z,81.88
2022-10-30T07:52:38.016Z,81.52
2022-10-30T07:55:05.594Z,81.88
2022-10-30T07:57:38.233Z,81.78
2022-10-30T08:00:07.811Z,81.81
2022-10-30T08:02:34.511Z,81.62
2022-10-30T08:05:01.607Z,81.55
2022-10-30T08:07:31.739Z,81.08
2022-10-30T08:09:58.329Z,81.75
2022-10-30T08:12:26.347Z,81.53
2022-10-30T08:14:53.873Z,81.43
2022-10-30T08:17:21.433Z,81.50
2022-10-30T08:19:48.015Z,80.97
2022-10-30T08:22:15.122Z,81.41
2022-10-30T08:24:42.170Z,81.33
2022-10-30T08:27:09.879Z,81.08
2022-10-30T08:29:36.573Z,81.53
2022-10-30T08:32:03.208Z,81.55
2022-10-30T08:34:32.559Z,80.72
2022-10-30T08:37:00.225Z,81.09
2022-10-30T08:39:27.270Z,81.36
2022-10-30T08:41:53.887Z,81.14
2022-10-30T08:44:20.440Z,80.93
2022-10-30T08:46:46.997Z,81.19
2022-10-30T08:49:13.517Z,81.40
2022-10-30T08:51:40.126Z,80.78
2022-10-30T08:54:06.689Z,81.20
2022-10-30T08:56:33.240Z,80.99
2022-10-30T08:58:59.799Z,81.12
2022-10-30T09:01:26.463Z,80.78
2022-10-30T09:03:53.079Z,80.67
2022-10-30T09:06:19.632Z,80.95
2022-10-30T09:08:46.765Z,81.20
2022-10-30T09:11:13.327Z,81.01
2022-10-30T09:13:39.891Z,80.99
2022-10-30T09:16:06.763Z,80.90
2022-10-30T09:18:33.299Z,81.00
2022-10-30T09:21:03.112Z,80.85
2022-10-30T09:23:31.603Z,80.97
2022-10-30T09:25:58.271Z,80.19
2022-10-30T09:28:24.863Z,80.34
2022-10-30T09:30:56.354Z,80.48
2022-10-30T09:33:23.489Z,80.52
2022-10-30T09:35:50.678Z,80.63
2022-10-30T09:38:17.334Z,79.91
2022-10-30T09:55:26.040Z,79.33
2022-10-30T10:00:50.804Z,78.71
2022-10-30T10:06:02.770Z,78.16
2022-10-30T10:08:40.895Z,78.11
2022-10-30T10:11:22.944Z,77.61
2022-10-30T10:13:56.797Z,77.94
2022-10-30T10:16:29.608Z,78.13
2022-10-30T10:21:37.317Z,77.70
2022-10-30T10:24:04.656Z,77.86
2022-10-30T10:43:40.111Z,76.54
2022-10-30T10:51:57.565Z,76.27
2022-10-30T10:54:33.469Z,76.61
2022-10-30T10:57:00.412Z,76.43
2022-10-30T10:59:34.589Z,76.40
2022-10-30T11:04:49.926Z,75.61
2022-10-30T11:09:58.393Z,74.80
2022-10-30T11:12:30.939Z,75.31
2022-10-30T11:15:09.650Z,75.43
2022-10-30T11:17:42.973Z,75.14
2022-10-30T11:20:35.000Z,74.94
2022-10-30T11:23:01.942Z,75.36
2022-10-30T11:25:35.383Z,75.23
2022-10-30T11:28:04.892Z,75.47
2022-10-30T11:30:32.009Z,75.70
2022-10-30T11:32:59.746Z,74.81
2022-10-30T11:35:26.917Z,75.04
2022-10-30T11:38:14.080Z,74.93
2022-10-30T11:40:48.593Z,74.60
2022-10-30T11:43:22.469Z,75.18
2022-10-30T11:45:50.387Z,75.14
2022-10-30T11:48:27.153Z,74.66
2022-10-30T11:51:00.123Z,74.41
2022-10-30T11:53:36.547Z,75.05
2022-10-30T11:56:11.166Z,74.82
2022-10-30T11:58:43.312Z,74.66
2022-10-30T12:01:34.438Z,73.92
2022-10-30T12:04:23.451Z,74.23
2022-10-30T12:07:08.191Z,74.38
2022-10-30T12:09:43.773Z,73.80
2022-10-30T12:12:12.743Z,74.34
2022-10-30T12:14:39.596Z,74.51
2022-10-30T12:17:06.356Z,74.70
2022-10-30T12:19:32.937Z,74.01
2022-10-30T12:22:01.535Z,73.71
2022-10-30T12:24:32.188Z,74.18
2022-10-30T12:27:05.242Z,73.77
2022-10-30T12:32:54.083Z,73.66
2022-10-30T12:38:25.018Z,73.65
2022-10-30T12:41:03.793Z,73.43
2022-10-30T12:43:34.861Z,73.63
2022-10-30T12:49:09.441Z,73.96
2022-10-30T12:51:43.657Z,72.90
2022-10-30T12:56:57.196Z,73.27
2022-10-30T12:59:55.742Z,73.60
2022-10-30T13:02:40.851Z,73.45
2022-10-30T13:16:02.852Z,72.61
2022-10-30T13:18:32.622Z,72.61
2022-10-30T13:21:20.390Z,72.67
2022-10-30T13:26:51.131Z,74.07
2022-10-30T13:29:50.025Z,74.24
2022-10-30T13:40:46.881Z,74.72
2022-10-30T13:53:50.597Z,75.51
2022-10-30T13:56:20.089Z,76.24
2022-10-30T13:59:10.262Z,75.50
2022-10-30T14:04:19.348Z,71.35
2022-10-30T14:09:49.009Z,72.81
2022-10-30T14:12:52.709Z,72.34
2022-10-30T14:18:25.827Z,73.30
2022-10-30T14:20:55.406Z,72.94
2022-10-30T14:26:14.482Z,73.27
2022-10-30T14:28:45.295Z,73.27
2022-10-30T14:33:51.964Z,73.53
2022-10-30T14:50:13.696Z,71.30
2022-10-30T14:58:16.817Z,72.93
2022-10-30T15:00:43.901Z,72.71
2022-10-30T15:03:27.205Z,72.66
2022-10-30T15:13:56.842Z,72.91
2022-10-30T15:16:27.296Z,73.02
2022-10-30T15:19:01.846Z,72.84
2022-10-30T15:21:33.447Z,72.95
2022-10-30T15:24:02.424Z,73.00
2022-10-30T15:26:36.156Z,73.35
2022-10-30T15:29:04.365Z,73.01
2022-10-30T15:31:30.994Z,73.46
2022-10-30T15:33:59.694Z,72.70
2022-10-30T15:36:43.005Z,72.68
2022-10-30T15:39:13.526Z,72.91
2022-10-30T15:42:00.005Z,72.83
2022-10-30T15:44:29.226Z,72.98
2022-10-30T15:46:57.818Z,72.97
2022-10-30T15:52:11.921Z,72.70
2022-10-30T15:54:41.709Z,72.79
2022-10-30T15:57:49.487Z,73.04
2022-10-30T16:00:08.419Z,72.57
2022-10-30T16:02:36.851Z,72.90
2022-10-30T16:05:20.076Z,72.94
2022-10-30T16:07:46.808Z,72.63
2022-10-30T16:10:17.016Z,73.85
2022-10-30T16:12:45.170Z,72.67
2022-10-30T16:15:31.458Z,73.40
2022-10-30T16:18:25.402Z,73.46
2022-10-30T16:20:56.441Z,73.91
2022-10-30T16:23:23.460Z,73.50
2022-10-30T16:25:55.883Z,73.91
2022-10-30T16:28:32.475Z,73.07
2022-10-30T16:31:14.349Z,74.21
2022-10-30T16:33:42.913Z,74.14
2022-10-30T16:36:14.989Z,73.39
2022-10-30T16:38:42.084Z,73.76
2022-10-30T16:41:13.525Z,73.49
2022-10-30T16:43:42.020Z,73.85
2022-10-30T16:48:58.232Z,74.72
2022-10-30T16:51:25.096Z,74.64
2022-10-30T16:53:52.837Z,75.01
2022-10-30T16:56:23.608Z,74.51
2022-10-30T16:58:52.235Z,75.22
2022-10-30T17:01:26.131Z,74.99
2022-10-30T17:03:55.317Z,74.88
2022-10-30T17:06:29.537Z,74.96
2022-10-30T17:08:59.864Z,75.28
2022-10-30T17:11:36.948Z,75.46
2022-10-30T17:14:26.237Z,75.05
2022-10-30T17:16:55.978Z,75.10
2022-10-30T17:22:12.940Z,75.05
2022-10-30T17:24:39.659Z,74.73
2022-10-30T17:27:22.554Z,75.73
2022-10-30T17:29:49.016Z,75.84
2022-10-30T17:35:00.696Z,75.04
2022-10-30T17:37:27.751Z,75.29
2022-10-30T17:39:54.566Z,75.81
2022-10-30T17:42:21.262Z,74.88
2022-10-30T17:44:48.114Z,75.49
2022-10-30T17:47:18.468Z,75.90
2022-10-30T17:49:45.984Z,75.00
2022-10-30T17:52:14.833Z,74.58
2022-10-30T17:54:42.607Z,75.63
2022-10-30T17:57:11.869Z,75.16
2022-10-30T17:59:39.468Z,75.16
2022-10-30T18:02:16.314Z,75.06
2022-10-30T18:04:44.010Z,75.33
2022-10-30T18:07:11.626Z,74.47
2022-10-30T18:09:38.524Z,74.69
2022-10-30T18:12:06.995Z,75.18
2022-10-30T18:14:33.978Z,74.82
2022-10-30T18:17:00.635Z,74.42
2022-10-30T18:19:27.253Z,75.33
2022-10-30T18:21:54.700Z,75.51
2022-10-30T18:24:21.545Z,74.79
2022-10-30T18:26:48.166Z,74.99
2022-10-30T18:29:14.764Z,75.43
2022-10-30T18:31:43.132Z,74.27
2022-10-30T18:34:16.117Z,74.80
2022-10-30T18:36:43.267Z,74.58
2022-10-30T18:39:11.636Z,74.41
2022-10-30T18:41:41.992Z,74.84
2022-10-30T18:44:13.389Z,74.72
2022-10-30T18:46:40.029Z,74.95
2022-10-30T18:49:06.620Z,74.94
2022-10-30T18:51:33.665Z,74.73
2022-10-30T18:54:00.228Z,75.65
2022-10-30T18:56:28.468Z,75.22
2022-10-30T18:59:01.758Z,75.76
2022-10-30T19:01:31.667Z,75.04
2022-10-30T19:04:01.217Z,75.47
2022-10-30T19:06:28.053Z,75.80
2022-10-30T19:08:54.630Z,76.01
2022-10-30T19:11:24.591Z,76.17
2022-10-30T19:13:53.139Z,76.33
2022-10-30T19:16:21.084Z,76.43
2022-10-30T19:18:48.479Z,75.75
2022-10-30T19:21:17.420Z,75.25
2022-10-30T19:23:44.542Z,75.83
2022-10-30T19:26:13.458Z,76.29
2022-10-30T19:28:41.094Z,76.85
2022-10-30T19:31:11.300Z,76.36
2022-10-30T19:33:37.912Z,75.96
2022-10-30T19:36:05.071Z,76.69
2022-10-30T19:38:32.789Z,76.26
2022-10-30T19:40:59.948Z,75.79
2022-10-30T19:43:26.619Z,75.73
2022-10-30T19:45:56.881Z,75.80
2022-10-30T19:48:47.753Z,76.49
2022-10-30T19:51:11.869Z,75.83
2022-10-30T19:53:39.683Z,75.83
2022-10-30T19:56:06.701Z,75.83
2022-10-30T19:58:33.288Z,76.40
2022-10-30T20:00:59.901Z,77.78
2022-10-30T20:03:26.812Z,76.89
2022-10-30T20:05:54.258Z,76.94
2022-10-30T20:08:23.082Z,77.28
2022-10-30T20:13:28.655Z,77.07
2022-10-30T20:15:58.569Z,77.14
2022-10-30T20:18:28.548Z,77.23
2022-10-30T20:20:57.313Z,77.47
2022-10-30T20:23:25.043Z,76.89
2022-10-30T20:25:55.212Z,77.10
2022-10-30T20:28:27.629Z,76.88
2022-10-30T20:30:55.227Z,76.46
2022-10-30T20:33:23.102Z,76.70
2022-10-30T20:35:50.695Z,77.37
2022-10-30T20:38:21.124Z,77.02
2022-10-30T20:40:49.191Z,77.34
2022-10-30T20:43:18.624Z,78.02
2022-10-30T20:45:45.453Z,78.23
2022-10-30T20:48:12.664Z,78.51
2022-10-30T20:50:40.301Z,77.41
2022-10-30T20:53:07.816Z,78.27
2022-10-30T20:55:35.291Z,78.25
2022-10-30T20:58:02.676Z,78.03
2022-10-30T21:00:29.769Z,78.25
2022-10-30T21:02:56.343Z,77.70
2022-10-30T21:05:42.646Z,78.34
2022-10-30T21:08:09.600Z,77.47
2022-10-30T21:10:37.673Z,78.35
2022-10-30T21:13:08.499Z,77.36
2022-10-30T21:15:40.125Z,77.45
2022-10-30T21:18:07.229Z,77.73
2022-10-30T21:20:33.917Z,77.29
2022-10-30T21:23:00.657Z,78.28
2022-10-30T21:25:27.186Z,78.56
2022-10-30T21:27:56.576Z,77.79
2022-10-30T21:30:23.159Z,77.57
2022-10-30T21:32:50.036Z,77.78
2022-10-30T21:35:17.290Z,78.62
2022-10-30T21:37:43.865Z,77.80
2022-10-30T21:40:11.021Z,77.67
2022-10-30T21:42:37.776Z,77.45
2022-10-30T21:45:05.137Z,77.39
2022-10-30T21:47:31.681Z,78.40
2022-10-30T21:49:58.199Z,78.75
2022-10-30T21:52:24.748Z,78.64
2022-10-30T21:54:51.301Z,79.18
2022-10-30T21:57:17.863Z,78.81
2022-10-30T21:59:44.400Z,78.02
2022-10-30T22:02:13.783Z,78.72
2022-10-30T22:04:40.360Z,77.53
2022-10-30T22:07:07.089Z,78.08
2022-10-30T22:09:33.620Z,79.03
2022-10-30T22:12:00.146Z,78.83
2022-10-30T22:14:26.995Z,78.41
2022-10-30T22:16:53.526Z,78.36
2022-10-30T22:19:20.050Z,78.23
2022-10-30T22:21:46.689Z,78.04
2022-10-30T22:24:13.784Z,78.94
2022-10-30T22:26:40.646Z,79.19
2022-10-30T22:29:07.186Z,79.56
2022-10-30T22:31:33.932Z,79.45
2022-10-30T22:34:01.437Z,79.58
2022-10-30T22:36:30.758Z,79.33
2022-10-30T22:41:37.473Z,79.76
2022-10-30T22:44:07.837Z,78.68
2022-10-30T22:46:35.416Z,80.07
2022-10-30T22:49:01.987Z,79.60
2022-10-30T22:51:32.668Z,78.75
2022-10-30T22:54:03.248Z,79.75
2022-10-30T22:56:32.507Z,78.72
2022-10-30T22:59:01.965Z,79.93
2022-10-30T23:01:30.819Z,79.68
2022-10-30T23:03:59.713Z,79.71
2022-10-30T23:06:27.769Z,80.44
2022-10-30T23:08:57.098Z,79.92
2022-10-30T23:11:24.262Z,79.12
2022-10-30T23:13:51.018Z,80.03
2022-10-30T23:16:20.972Z,79.40
2022-10-30T23:18:47.935Z,80.10
2022-10-30T23:21:18.010Z,80.83
2022-10-30T23:23:44.989Z,80.60
2022-10-30T23:26:15.855Z,80.59
2022-10-30T23:28:43.111Z,79.90
2022-10-30T23:31:17.600Z,79.82
2022-10-30T23:33:47.549Z,80.55
2022-10-30T23:36:14.105Z,80.36
2022-10-30T23:38:40.644Z,79.84
2022-10-30T23:41:07.245Z,80.29
2022-10-30T23:43:33.845Z,79.52
2022-10-30T23:46:00.431Z,79.66
2022-10-30T23:48:27.010Z,79.67
2022-10-30T23:50:53.572Z,80.51
2022-10-30T23:53:20.105Z,79.93
2022-10-30T23:55:54.897Z,79.90
2022-10-30T23:58:21.574Z,80.13
